createdAt,value
2022-12-06T00:02:41.136Z,25.23
2022-12-06T00:05:49.148Z,31.90
2022-12-06T00:09:01.051Z,33.50
2022-12-06T00:12:03.033Z,31.27
2022-12-06T00:15:05.382Z,38.17
2022-12-06T00:18:10.095Z,36.67
2022-12-06T00:21:11.961Z,35.17
2022-12-06T00:24:27.885Z,35.13
2022-12-06T00:27:38.765Z,35.55
2022-12-06T00:30:43.623Z,34.13
2022-12-06T00:33:46.270Z,38.85
2022-12-06T00:36:57.062Z,37.53
2022-12-06T00:39:59.265Z,31.42
2022-12-06T00:43:16.620Z,36.08
2022-12-06T00:46:22.375Z,31.60
2022-12-06T00:49:24.514Z,34.38
2022-12-06T00:52:26.577Z,32.47
2022-12-06T00:55:28.417Z,34.17
2022-12-06T00:58:30.801Z,32.10
2022-12-06T01:01:34.130Z,31.23
2022-12-06T01:04:37.687Z,29.85
2022-12-06T01:07:42.059Z,29.30
2022-12-06T01:10:54.673Z,29.92
2022-12-06T01:13:57.266Z,23.65
2022-12-06T01:17:01.935Z,26.98
2022-12-06T01:20:05.009Z,31.02
2022-12-06T01:23:09.421Z,30.42
2022-12-06T01:26:20.427Z,30.75
2022-12-06T01:29:22.280Z,28.15
2022-12-06T01:32:24.974Z,34.83
2022-12-06T01:35:26.714Z,31.52
2022-12-06T01:38:28.578Z,34.50
2022-12-06T01:41:30.362Z,46.42
2022-12-06T01:44:39.430Z,35.40
2022-12-06T01:47:44.583Z,46.25
2022-12-06T01:50:47.908Z,32.67
2022-12-06T02:00:12.543Z,40.27
2022-12-06T02:03:20.273Z,53.60
2022-12-06T02:06:22.885Z,39.75
2022-12-06T02:09:31.271Z,39.35
2022-12-06T02:12:39.044Z,44.70
2022-12-06T02:15:59.881Z,36.80
2022-12-06T02:19:31.776Z,42.72
2022-12-06T02:23:10.102Z,48.70
2022-12-06T02:26:43.199Z,48.17
2022-12-06T02:30:23.907Z,52.60
2022-12-06T02:33:37.630Z,42.28
2022-12-06T02:37:01.098Z,36.75
2022-12-06T02:40:09.841Z,37.08
2022-12-06T02:43:17.488Z,36.90
2022-12-06T02:46:22.717Z,37.63
2022-12-06T02:49:28.026Z,47.45
2022-12-06T02:52:31.847Z,38.78
2022-12-06T02:55:34.977Z,36.85
2022-12-06T02:58:37.609Z,33.90
2022-12-06T03:01:45.648Z,24.67
2022-12-06T03:05:07.444Z,49.67
2022-12-06T03:08:22.223Z,37.33
2022-12-06T03:11:29.763Z,50.83
2022-12-06T03:14:43.520Z,39.88
2022-12-06T03:17:55.509Z,50.80
2022-12-06T03:21:08.734Z,35.50
2022-12-06T03:24:14.154Z,48.55
2022-12-06T03:27:19.570Z,46.75
2022-12-06T03:30:21.778Z,40.85
2022-12-06T03:33:26.548Z,48.95
2022-12-06T03:36:30.277Z,38.28
2022-12-06T03:39:44.414Z,35.42
2022-12-06T03:42:47.994Z,43.55
2022-12-06T03:46:11.219Z,37.05
2022-12-06T03:49:33.296Z,43.10
2022-12-06T03:52:35.185Z,44.45
2022-12-06T03:55:37.202Z,35.20
2022-12-06T03:58:39.059Z,46.22
2022-12-06T04:01:41.058Z,38.60
2022-12-06T04:04:42.902Z,44.67
2022-12-06T04:07:44.821Z,40.17
2022-12-06T04:10:46.779Z,31.48
2022-12-06T04:13:48.759Z,33.88
2022-12-06T04:17:09.054Z,35.10
2022-12-06T04:20:11.367Z,33.80
2022-12-06T04:23:13.619Z,32.15
2022-12-06T04:26:20.897Z,33.80
2022-12-06T04:29:41.164Z,32.13
2022-12-06T04:33:01.564Z,30.98
2022-12-06T04:36:22.187Z,30.33
2022-12-06T04:39:24.519Z,29.27
2022-12-06T04:42:45.142Z,28.90
2022-12-06T04:45:47.055Z,29.38
2022-12-06T04:48:48.849Z,28.02
2022-12-06T04:51:52.191Z,29.23
2022-12-06T04:57:55.820Z,25.85
2022-12-06T05:00:57.819Z,27.80
2022-12-06T05:03:59.701Z,25.67
2022-12-06T05:07:01.802Z,25.95
2022-12-06T05:10:04.161Z,24.67
2022-12-06T05:13:06.277Z,26.70
2022-12-06T05:16:09.579Z,27.15
2022-12-06T05:22:16.447Z,26.52
2022-12-06T05:25:18.276Z,26.30
2022-12-06T05:28:20.030Z,25.75
2022-12-06T05:31:23.325Z,27.20
2022-12-06T05:37:28.773Z,35.55
2022-12-06T05:40:31.464Z,26.75
2022-12-06T05:43:33.588Z,37.35
2022-12-06T05:46:35.584Z,29.92
2022-12-06T05:49:37.332Z,32.13
2022-12-06T05:52:39.168Z,76.40
2022-12-06T05:55:41.195Z,48.92
2022-12-06T05:58:43.114Z,38.70
2022-12-06T06:01:45.109Z,49.22
2022-12-06T06:04:46.922Z,36.30
2022-12-06T06:07:48.907Z,54.72
2022-12-06T06:10:50.678Z,48.42
2022-12-06T06:13:54.517Z,42.47
2022-12-06T06:16:56.327Z,46.17
2022-12-06T06:19:58.138Z,35.40
2022-12-06T06:22:59.955Z,33.33
2022-12-06T06:26:07.541Z,32.92
2022-12-06T06:29:09.822Z,34.95
2022-12-06T06:32:12.645Z,28.55
2022-12-06T06:35:14.402Z,30.17
2022-12-06T06:38:16.118Z,31.92
2022-12-06T06:41:19.085Z,30.73
2022-12-06T06:44:20.906Z,28.90
2022-12-06T06:47:23.212Z,28.83
2022-12-06T06:50:25.130Z,25.45
2022-12-06T06:53:27.900Z,22.40
2022-12-06T06:56:29.965Z,25.55
2022-12-06T06:59:31.815Z,28.35
2022-12-06T07:02:33.603Z,27.40
2022-12-06T07:05:35.500Z,25.60
2022-12-06T07:08:38.682Z,36.45
2022-12-06T07:11:40.609Z,40.35
2022-12-06T07:14:42.366Z,27.25
2022-12-06T07:17:44.332Z,24.70
2022-12-06T07:20:47.259Z,19.70
2022-12-06T07:23:49.331Z,21.13
2022-12-06T07:26:51.135Z,21.52
2022-12-06T07:29:53.073Z,21.65
2022-12-06T07:32:55.533Z,25.35
2022-12-06T07:36:12.136Z,24.63
2022-12-06T07:39:15.319Z,24.63
2022-12-06T07:42:35.773Z,27.00
2022-12-06T07:45:38.201Z,25.70
2022-12-06T07:48:40.016Z,27.73
2022-12-06T07:51:42.580Z,25.50
2022-12-06T07:54:44.482Z,24.97
2022-12-06T07:57:46.418Z,18.73
2022-12-06T08:00:48.096Z,23.80
2022-12-06T08:03:50.467Z,16.73
2022-12-06T08:06:52.447Z,15.27
2022-12-06T08:09:54.539Z,16.90
2022-12-06T08:12:56.313Z,23.27
2022-12-06T08:15:58.233Z,20.65
2022-12-06T08:19:00.211Z,20.55
2022-12-06T08:22:02.036Z,19.60
2022-12-06T08:25:04.114Z,17.30
2022-12-06T08:28:06.077Z,20.77
2022-12-06T08:31:09.661Z,18.35
2022-12-06T08:34:12.754Z,19.52
2022-12-06T08:37:14.496Z,17.85
2022-12-06T08:40:16.412Z,19.13
2022-12-06T08:43:19.320Z,18.67
2022-12-06T08:46:21.293Z,15.98
2022-12-06T08:49:25.169Z,15.85
2022-12-06T08:52:27.137Z,16.25
2022-12-06T08:55:28.905Z,13.93
2022-12-06T08:58:31.116Z,17.20
2022-12-06T09:01:37.748Z,17.63
2022-12-06T09:04:40.152Z,16.30
2022-12-06T09:07:42.040Z,17.20
2022-12-06T09:10:44.401Z,17.80
2022-12-06T09:13:46.684Z,20.88
2022-12-06T09:16:49.172Z,23.38
2022-12-06T09:19:51.527Z,19.77
2022-12-06T09:22:53.346Z,18.70
2022-12-06T09:25:55.304Z,21.23
2022-12-06T09:28:57.995Z,19.02
2022-12-06T09:31:59.778Z,20.92
2022-12-06T09:35:01.749Z,19.52
2022-12-06T09:38:04.238Z,22.45
2022-12-06T09:41:23.325Z,21.70
2022-12-06T09:45:05.851Z,23.23
2022-12-06T09:48:47.322Z,19.55
2022-12-06T09:51:59.608Z,20.92
2022-12-06T09:55:29.466Z,20.48
2022-12-06T09:58:37.299Z,22.27
2022-12-06T10:01:55.806Z,20.48
2022-12-06T10:05:15.616Z,18.63
2022-12-06T10:08:35.630Z,20.25
2022-12-06T10:11:48.064Z,14.65
2022-12-06T10:14:55.844Z,22.77
2022-12-06T10:18:20.647Z,21.08
2022-12-06T10:22:00.925Z,21.98
2022-12-06T10:25:25.872Z,16.10
2022-12-06T10:28:41.754Z,18.00
2022-12-06T10:31:56.889Z,17.58
2022-12-06T10:35:07.443Z,39.65
2022-12-06T10:38:20.607Z,17.27
2022-12-06T10:41:39.084Z,17.40
2022-12-06T10:44:58.806Z,17.25
2022-12-06T10:48:02.777Z,15.40
2022-12-06T10:51:10.878Z,14.88
2022-12-06T10:54:24.024Z,13.30
2022-12-06T10:57:37.695Z,18.48
2022-12-06T11:01:01.807Z,10.00
2022-12-06T11:04:10.930Z,17.58
2022-12-06T11:07:18.503Z,17.90
2022-12-06T11:10:31.004Z,20.80
2022-12-06T11:13:42.665Z,12.73
2022-12-06T11:17:01.164Z,10.88
2022-12-06T11:20:26.957Z,12.80
2022-12-06T11:23:50.170Z,10.18
2022-12-06T11:27:04.868Z,10.23
2022-12-06T11:30:19.852Z,14.95
2022-12-06T11:33:33.505Z,9.27
2022-12-06T11:36:35.424Z,11.17
2022-12-06T11:39:37.482Z,8.70
2022-12-06T11:42:39.813Z,11.35
2022-12-06T11:45:45.875Z,10.77
2022-12-06T11:48:47.953Z,17.52
2022-12-06T11:51:51.312Z,17.58
2022-12-06T11:58:03.995Z,18.50
2022-12-06T12:01:12.023Z,14.23
2022-12-06T12:04:26.142Z,21.02
2022-12-06T12:07:28.136Z,18.75
2022-12-06T12:10:39.713Z,14.05
2022-12-06T12:13:52.354Z,16.77
2022-12-06T12:17:02.018Z,12.48
2022-12-06T12:20:06.041Z,16.73
2022-12-06T12:23:21.842Z,13.15
2022-12-06T12:26:24.806Z,9.80
2022-12-06T12:29:26.864Z,10.75
2022-12-06T12:32:28.733Z,8.48
2022-12-06T12:35:30.603Z,11.60
2022-12-06T12:38:43.405Z,11.30
2022-12-06T12:41:45.569Z,11.80
2022-12-06T12:44:48.123Z,17.30
2022-12-06T12:48:03.836Z,19.23
2022-12-06T12:51:20.629Z,22.08
2022-12-06T12:54:43.164Z,28.73
2022-12-06T12:57:48.194Z,21.30
2022-12-06T13:00:50.448Z,16.90
2022-12-06T13:03:57.597Z,13.07
2022-12-06T13:07:03.628Z,12.93
2022-12-06T13:10:15.950Z,10.18
2022-12-06T13:13:26.264Z,8.20
2022-12-06T13:16:34.317Z,10.52
2022-12-06T13:19:40.801Z,6.82
2022-12-06T13:22:45.415Z,10.85
2022-12-06T13:26:10.066Z,8.77
2022-12-06T13:29:35.044Z,11.07
2022-12-06T13:32:59.601Z,12.55
2022-12-06T13:36:09.754Z,12.35
2022-12-06T13:39:30.350Z,11.93
2022-12-06T13:42:36.485Z,10.77
2022-12-06T13:45:41.568Z,9.40
2022-12-06T13:49:03.837Z,8.30
2022-12-06T13:52:05.649Z,8.48
2022-12-06T13:55:45.487Z,12.30
2022-12-06T13:58:56.120Z,10.80
2022-12-06T14:01:59.213Z,8.20
2022-12-06T14:05:01.204Z,10.15
2022-12-06T14:08:03.254Z,11.43
2022-12-06T14:11:14.761Z,10.85
2022-12-06T14:14:22.777Z,11.27
2022-12-06T14:18:00.631Z,12.57
2022-12-06T14:20:59.237Z,17.13
2022-12-06T14:24:01.235Z,16.83
2022-12-06T14:27:10.589Z,15.25
2022-12-06T14:30:25.836Z,14.93
2022-12-06T14:33:28.004Z,10.13
2022-12-06T14:36:33.604Z,11.98
2022-12-06T14:39:35.319Z,12.65
2022-12-06T14:42:56.201Z,9.63
2022-12-06T14:45:59.906Z,11.30
2022-12-06T14:49:20.253Z,14.82
2022-12-06T14:52:28.738Z,9.57
2022-12-06T14:55:36.602Z,8.95
2022-12-06T14:58:45.141Z,12.90
2022-12-06T15:01:49.971Z,15.75
2022-12-06T15:04:52.346Z,12.77
2022-12-06T15:07:54.566Z,12.52
2022-12-06T15:11:33.564Z,9.80
2022-12-06T15:14:35.340Z,12.95
2022-12-06T15:17:37.089Z,12.43
2022-12-06T15:20:39.664Z,13.23
2022-12-06T15:23:55.332Z,14.32
2022-12-06T15:26:57.633Z,13.77
2022-12-06T15:29:59.691Z,14.23
2022-12-06T15:33:01.675Z,14.20
2022-12-06T15:36:03.725Z,15.45
2022-12-06T15:39:05.577Z,14.65
2022-12-06T15:42:20.311Z,14.88
2022-12-06T15:45:22.173Z,12.75
2022-12-06T15:48:24.040Z,13.70
2022-12-06T15:51:27.232Z,12.05
2022-12-06T15:54:29.191Z,15.75
2022-12-06T15:57:30.937Z,12.43
2022-12-06T16:00:32.692Z,16.02
2022-12-06T16:03:34.637Z,20.63
2022-12-06T16:06:36.571Z,21.70
2022-12-06T16:09:38.712Z,15.82
2022-12-06T16:12:58.931Z,15.60
2022-12-06T16:16:00.928Z,16.13
2022-12-06T16:19:02.762Z,16.10
2022-12-06T16:22:04.745Z,18.50
2022-12-06T16:25:06.697Z,20.80
2022-12-06T16:28:08.745Z,59.40
2022-12-06T16:31:14.169Z,90.93
2022-12-06T16:34:16.296Z,69.68
2022-12-06T16:37:18.222Z,61.10
2022-12-06T16:40:22.909Z,34.75
2022-12-06T16:43:25.629Z,50.28
2022-12-06T16:46:38.635Z,23.13
2022-12-06T16:49:49.009Z,17.83
2022-12-06T16:52:52.176Z,14.93
2022-12-06T16:55:53.907Z,14.00
2022-12-06T16:58:55.844Z,14.63
2022-12-06T17:01:57.937Z,12.05
2022-12-06T17:05:02.367Z,15.18
2022-12-06T17:08:04.538Z,14.80
2022-12-06T17:11:25.064Z,19.27
2022-12-06T17:14:27.454Z,15.75
2022-12-06T17:17:29.476Z,16.98
2022-12-06T17:20:32.608Z,12.55
2022-12-06T17:23:34.502Z,15.48
2022-12-06T17:26:36.448Z,15.30
2022-12-06T17:29:38.326Z,17.52
2022-12-06T17:32:40.291Z,18.58
2022-12-06T17:35:42.489Z,16.70
2022-12-06T17:38:44.408Z,18.05
2022-12-06T17:42:05.452Z,19.05
2022-12-06T17:45:07.791Z,18.00
2022-12-06T17:48:09.820Z,18.00
2022-12-06T17:51:11.663Z,21.13
2022-12-06T17:54:14.640Z,12.63
2022-12-06T17:57:18.501Z,14.23
2022-12-06T18:00:20.757Z,14.95
2022-12-06T18:03:22.588Z,14.35
2022-12-06T18:06:26.711Z,15.40
2022-12-06T18:09:28.457Z,13.63
2022-12-06T18:12:31.781Z,13.60
2022-12-06T18:15:38.123Z,12.80
2022-12-06T18:18:41.192Z,14.82
2022-12-06T18:21:43.638Z,14.00
2022-12-06T18:25:05.554Z,14.20
2022-12-06T18:28:08.010Z,16.55
2022-12-06T18:31:11.410Z,10.40
2022-12-06T18:37:15.326Z,10.55
2022-12-06T18:40:17.436Z,14.85
2022-12-06T18:43:19.901Z,9.30
2022-12-06T18:46:25.338Z,10.90
2022-12-06T18:49:27.163Z,11.43
2022-12-06T18:52:29.026Z,11.77
2022-12-06T18:55:30.818Z,16.20
2022-12-06T18:58:33.004Z,13.18
2022-12-06T19:01:37.978Z,16.60
2022-12-06T19:04:39.863Z,16.42
2022-12-06T19:07:42.173Z,41.50
2022-12-06T19:10:44.348Z,12.25
2022-12-06T19:13:52.320Z,12.45
2022-12-06T19:16:54.401Z,19.05
2022-12-06T19:19:56.216Z,15.38
2022-12-06T19:22:58.243Z,12.88
2022-12-06T19:26:02.133Z,10.75
2022-12-06T19:29:05.568Z,13.02
2022-12-06T19:35:09.533Z,16.50
2022-12-06T19:38:11.528Z,13.30
2022-12-06T19:41:16.303Z,17.38
2022-12-06T19:44:18.693Z,15.50
2022-12-06T19:47:20.499Z,22.80
2022-12-06T19:50:22.537Z,16.60
2022-12-06T19:53:24.406Z,15.63
2022-12-06T19:56:27.625Z,13.85
2022-12-06T19:59:33.785Z,13.30
2022-12-06T20:02:35.585Z,12.02
2022-12-06T20:05:37.468Z,14.48
2022-12-06T20:08:39.464Z,12.85
2022-12-06T20:12:00.603Z,15.27
2022-12-06T20:15:02.559Z,20.55
2022-12-06T20:18:04.501Z,16.67
2022-12-06T20:21:06.513Z,16.85
2022-12-06T20:24:10.664Z,16.05
2022-12-06T20:27:12.452Z,17.38
2022-12-06T20:30:14.639Z,13.98
2022-12-06T20:33:16.593Z,14.35
2022-12-06T20:39:25.912Z,14.93
2022-12-06T20:42:27.819Z,17.27
2022-12-06T20:45:29.690Z,15.15
2022-12-06T20:48:34.623Z,16.00
2022-12-06T20:51:36.744Z,15.45
2022-12-06T20:54:38.659Z,17.70
2022-12-06T20:57:40.606Z,18.85
2022-12-06T21:00:43.995Z,16.70
2022-12-06T21:06:51.236Z,20.33
2022-12-06T21:09:53.030Z,18.58
2022-12-06T21:12:54.850Z,19.95
2022-12-06T21:16:11.458Z,17.15
2022-12-06T21:19:17.855Z,18.13
2022-12-06T21:22:19.711Z,20.98
2022-12-06T21:25:21.455Z,16.40
2022-12-06T21:28:23.531Z,21.40
2022-12-06T21:31:30.597Z,21.63
2022-12-06T21:34:32.701Z,18.38
2022-12-06T21:37:35.050Z,20.27
2022-12-06T21:40:37.112Z,17.90
2022-12-06T21:43:39.902Z,19.80
2022-12-06T21:46:41.768Z,19.30
2022-12-06T21:49:43.580Z,19.77
2022-12-06T21:52:45.543Z,24.15
2022-12-06T21:55:47.549Z,17.08
2022-12-06T21:58:50.366Z,17.48
2022-12-06T22:01:52.407Z,17.17
2022-12-06T22:04:54.383Z,17.65
2022-12-06T22:07:56.229Z,20.65
2022-12-06T22:10:58.150Z,17.88
2022-12-06T22:14:01.110Z,16.80
2022-12-06T22:17:02.992Z,18.38
2022-12-06T22:20:05.563Z,23.08
2022-12-06T22:23:07.372Z,18.53
2022-12-06T22:26:11.685Z,20.58
2022-12-06T22:29:13.807Z,17.20
2022-12-06T22:32:15.868Z,19.75
2022-12-06T22:35:17.817Z,23.73
2022-12-06T22:38:19.612Z,18.25
2022-12-06T22:41:23.057Z,23.00
2022-12-06T22:47:26.722Z,17.42
2022-12-06T22:50:28.500Z,20.73
2022-12-06T22:53:30.273Z,18.08
2022-12-06T22:56:33.507Z,19.85
2022-12-06T22:59:35.232Z,19.63
2022-12-06T23:02:37.004Z,18.02
2022-12-06T23:05:38.723Z,17.77
2022-12-06T23:08:41.024Z,18.35
2022-12-06T23:11:43.746Z,16.10
2022-12-06T23:14:45.515Z,19.15
2022-12-06T23:17:47.257Z,18.92
2022-12-06T23:20:49.250Z,17.85
2022-12-06T23:23:56.590Z,19.63
2022-12-06T23:26:58.585Z,17.75
2022-12-06T23:30:01.041Z,18.67
2022-12-06T23:33:03.272Z,20.13
2022-12-06T23:36:11.661Z,18.83
2022-12-06T23:39:13.755Z,16.25
2022-12-06T23:42:16.005Z,17.40
2022-12-06T23:45:17.713Z,18.75
2022-12-06T23:48:19.646Z,16.27
2022-12-06T23:51:23.829Z,17.48
2022-12-06T23:54:25.611Z,20.48
2022-12-06T23:57:28.195Z,18.75
